sensor_id;sensor_type;location;lat;lon;timestamp;P1;durP1;ratioP1;P2;durP2;ratioP2
7195;SDS011;3639;51.308;5.624;2023-03-01T00:00:54;11.37;;;8.77;;
7195;SDS011;3639;51.308;5.624;2023-03-01T00:03:19;12.67;;;9.17;;
7195;SDS011;3639;51.308;5.624;2023-03-01T00:05:45;12.07;;;7.97;;
7195;SDS011;3639;51.308;5.624;2023-03-01T00:08:12;9.70;;;8.23;;
7195;SDS011;3639;51.308;5.624;2023-03-01T00:10:38;13.13;;;8.10;;
7195;SDS011;3639;51.308;5.624;2023-03-01T00:13:03;11.20;;;7.67;;
7195;SDS011;3639;51.308;5.624;2023-03-01T00:15:30;11.17;;;8.20;;
7195;SDS011;3639;51.308;5.624;2023-03-01T00:17:57;10.70;;;7.60;;
7195;SDS011;3639;51.308;5.624;2023-03-01T00:20:23;14.40;;;8.30;;
7195;SDS011;3639;51.308;5.624;2023-03-01T00:22:49;10.57;;;7.37;;
7195;SDS011;3639;51.308;5.624;2023-03-01T00:25:14;11.37;;;8.00;;
7195;SDS011;3639;51.308;5.624;2023-03-01T00:27:40;8.60;;;7.03;;
7195;SDS011;3639;51.308;5.624;2023-03-01T00:30:06;9.33;;;8.33;;
7195;SDS011;3639;51.308;5.624;2023-03-01T00:32:32;10.03;;;7.07;;
7195;SDS011;3639;51.308;5.624;2023-03-01T00:34:58;13.30;;;7.80;;
7195;SDS011;3639;51.308;5.624;2023-03-01T00:37:23;9.97;;;7.60;;
7195;SDS011;3639;51.308;5.624;2023-03-01T00:39:49;9.83;;;8.07;;
7195;SDS011;3639;51.308;5.624;2023-03-01T00:42:15;12.37;;;8.03;;
7195;SDS011;3639;51.308;5.624;2023-03-01T00:44:41;8.37;;;7.50;;
7195;SDS011;3639;51.308;5.624;2023-03-01T00:47:07;11.90;;;8.27;;
7195;SDS011;3639;51.308;5.624;2023-03-01T00:49:33;10.10;;;7.70;;
7195;SDS011;3639;51.308;5.624;2023-03-01T00:51:59;10.20;;;8.23;;
7195;SDS011;3639;51.308;5.624;2023-03-01T00:54:24;11.13;;;8.10;;
7195;SDS011;3639;51.308;5.624;2023-03-01T00:56:50;11.00;;;7.70;;
7195;SDS011;3639;51.308;5.624;2023-03-01T00:59:16;11.20;;;8.50;;
7195;SDS011;3639;51.308;5.624;2023-03-01T01:01:41;11.20;;;8.03;;
7195;SDS011;3639;51.308;5.624;2023-03-01T01:04:09;9.40;;;7.27;;
7195;SDS011;3639;51.308;5.624;2023-03-01T01:06:38;11.33;;;8.17;;
7195;SDS011;3639;51.308;5.624;2023-03-01T01:09:10;11.10;;;7.67;;
7195;SDS011;3639;51.308;5.624;2023-03-01T01:11:44;10.50;;;8.00;;
7195;SDS011;3639;51.308;5.624;2023-03-01T01:14:11;13.80;;;7.87;;
7195;SDS011;3639;51.308;5.624;2023-03-01T01:16:37;10.33;;;7.10;;
7195;SDS011;3639;51.308;5.624;2023-03-01T01:19:03;12.97;;;8.23;;
7195;SDS011;3639;51.308;5.624;2023-03-01T01:21:29;11.77;;;7.97;;
7195;SDS011;3639;51.308;5.624;2023-03-01T01:23:55;10.23;;;8.27;;
7195;SDS011;3639;51.308;5.624;2023-03-01T01:26:22;11.50;;;8.00;;
7195;SDS011;3639;51.308;5.624;2023-03-01T01:28:50;9.97;;;7.13;;
7195;SDS011;3639;51.308;5.624;2023-03-01T01:31:16;8.17;;;7.20;;
7195;SDS011;3639;51.308;5.624;2023-03-01T01:33:43;15.07;;;7.57;;
7195;SDS011;3639;51.308;5.624;2023-03-01T01:36:09;8.93;;;7.63;;
7195;SDS011;3639;51.308;5.624;2023-03-01T01:38:35;9.17;;;7.00;;
7195;SDS011;3639;51.308;5.624;2023-03-01T01:41:01;12.20;;;8.50;;
7195;SDS011;3639;51.308;5.624;2023-03-01T01:43:29;12.87;;;7.90;;
7195;SDS011;3639;51.308;5.624;2023-03-01T01:46:06;14.87;;;8.27;;
7195;SDS011;3639;51.308;5.624;2023-03-01T01:48:48;10.27;;;8.10;;
7195;SDS011;3639;51.308;5.624;2023-03-01T01:51:22;13.73;;;8.17;;
7195;SDS011;3639;51.308;5.624;2023-03-01T01:53:53;11.90;;;8.17;;
7195;SDS011;3639;51.308;5.624;2023-03-01T01:56:23;9.00;;;7.33;;
7195;SDS011;3639;51.308;5.624;2023-03-01T01:58:51;16.37;;;9.53;;
7195;SDS011;3639;51.308;5.624;2023-03-01T02:01:17;22.87;;;11.97;;
7195;SDS011;3639;51.308;5.624;2023-03-01T02:03:44;30.83;;;14.30;;
7195;SDS011;3639;51.308;5.624;2023-03-01T02:08:47;14.80;;;9.10;;
7195;SDS011;3639;51.308;5.624;2023-03-01T02:11:15;13.73;;;9.27;;
7195;SDS011;3639;51.308;5.624;2023-03-01T02:13:43;14.93;;;9.33;;
7195;SDS011;3639;51.308;5.624;2023-03-01T02:16:11;14.83;;;8.30;;
7195;SDS011;3639;51.308;5.624;2023-03-01T02:18:39;10.87;;;8.43;;
7195;SDS011;3639;51.308;5.624;2023-03-01T02:23:46;11.03;;;8.27;;
7195;SDS011;3639;51.308;5.624;2023-03-01T02:29:10;10.33;;;7.37;;
7195;SDS011;3639;51.308;5.624;2023-03-01T02:31:35;11.57;;;7.73;;
7195;SDS011;3639;51.308;5.624;2023-03-01T02:34:17;9.60;;;7.97;;
7195;SDS011;3639;51.308;5.624;2023-03-01T02:37:08;10.57;;;7.13;;
7195;SDS011;3639;51.308;5.624;2023-03-01T02:39:38;11.03;;;7.27;;
7195;SDS011;3639;51.308;5.624;2023-03-01T02:42:14;12.07;;;8.67;;
7195;SDS011;3639;51.308;5.624;2023-03-01T02:44:45;11.20;;;7.37;;
7195;SDS011;3639;51.308;5.624;2023-03-01T02:47:10;13.20;;;8.00;;
7195;SDS011;3639;51.308;5.624;2023-03-01T02:49:36;12.53;;;8.30;;
7195;SDS011;3639;51.308;5.624;2023-03-01T02:55:01;8.90;;;6.47;;
7195;SDS011;3639;51.308;5.624;2023-03-01T02:57:28;12.43;;;7.77;;
7195;SDS011;3639;51.308;5.624;2023-03-01T02:59:56;10.17;;;7.30;;
7195;SDS011;3639;51.308;5.624;2023-03-01T03:02:25;9.80;;;7.10;;
7195;SDS011;3639;51.308;5.624;2023-03-01T03:07:45;9.57;;;7.97;;
7195;SDS011;3639;51.308;5.624;2023-03-01T03:10:15;14.03;;;7.07;;
7195;SDS011;3639;51.308;5.624;2023-03-01T03:12:47;12.90;;;7.77;;
7195;SDS011;3639;51.308;5.624;2023-03-01T03:15:24;12.93;;;8.50;;
7195;SDS011;3639;51.308;5.624;2023-03-01T03:17:52;13.13;;;7.67;;
7195;SDS011;3639;51.308;5.624;2023-03-01T03:20:19;12.43;;;8.00;;
7195;SDS011;3639;51.308;5.624;2023-03-01T03:22:49;10.07;;;7.57;;
7195;SDS011;3639;51.308;5.624;2023-03-01T03:25:17;10.43;;;7.83;;
7195;SDS011;3639;51.308;5.624;2023-03-01T03:27:45;8.93;;;7.87;;
7195;SDS011;3639;51.308;5.624;2023-03-01T03:30:13;11.07;;;7.63;;
7195;SDS011;3639;51.308;5.624;2023-03-01T03:32:44;10.00;;;7.87;;
7195;SDS011;3639;51.308;5.624;2023-03-01T03:35:20;12.57;;;8.10;;
7195;SDS011;3639;51.308;5.624;2023-03-01T03:37:49;9.83;;;6.80;;
7195;SDS011;3639;51.308;5.624;2023-03-01T03:43:02;12.23;;;7.83;;
7195;SDS011;3639;51.308;5.624;2023-03-01T03:45:30;10.10;;;7.47;;
7195;SDS011;3639;51.308;5.624;2023-03-01T03:47:58;9.47;;;7.73;;
7195;SDS011;3639;51.308;5.624;2023-03-01T03:50:24;12.33;;;7.00;;
7195;SDS011;3639;51.308;5.624;2023-03-01T03:52:51;8.07;;;7.07;;
7195;SDS011;3639;51.308;5.624;2023-03-01T03:55:16;12.53;;;8.73;;
7195;SDS011;3639;51.308;5.624;2023-03-01T03:57:44;12.23;;;8.13;;
7195;SDS011;3639;51.308;5.624;2023-03-01T04:00:17;11.53;;;7.70;;
7195;SDS011;3639;51.308;5.624;2023-03-01T04:02:45;8.07;;;7.20;;
7195;SDS011;3639;51.308;5.624;2023-03-01T04:05:12;11.27;;;8.03;;
7195;SDS011;3639;51.308;5.624;2023-03-01T04:07:42;8.33;;;7.00;;
7195;SDS011;3639;51.308;5.624;2023-03-01T04:10:12;10.23;;;7.77;;
7195;SDS011;3639;51.308;5.624;2023-03-01T04:12:42;11.60;;;7.33;;
7195;SDS011;3639;51.308;5.624;2023-03-01T04:15:08;11.37;;;7.43;;
7195;SDS011;3639;51.308;5.624;2023-03-01T04:20:29;18.03;;;7.73;;
7195;SDS011;3639;51.308;5.624;2023-03-01T04:23:21;11.97;;;8.27;;
7195;SDS011;3639;51.308;5.624;2023-03-01T04:25:47;9.90;;;7.63;;
7195;SDS011;3639;51.308;5.624;2023-03-01T04:28:30;11.03;;;7.60;;
7195;SDS011;3639;51.308;5.624;2023-03-01T04:31:01;10.37;;;7.73;;
7195;SDS011;3639;51.308;5.624;2023-03-01T04:33:37;10.13;;;7.43;;
7195;SDS011;3639;51.308;5.624;2023-03-01T04:36:07;9.90;;;7.27;;
7195;SDS011;3639;51.308;5.624;2023-03-01T04:38:34;14.07;;;7.87;;
7195;SDS011;3639;51.308;5.624;2023-03-01T04:41:02;12.30;;;8.33;;
7195;SDS011;3639;51.308;5.624;2023-03-01T04:43:31;9.73;;;7.53;;
7195;SDS011;3639;51.308;5.624;2023-03-01T04:46:06;12.67;;;8.13;;
7195;SDS011;3639;51.308;5.624;2023-03-01T04:48:34;11.33;;;8.13;;
7195;SDS011;3639;51.308;5.624;2023-03-01T04:51:01;10.40;;;7.67;;
7195;SDS011;3639;51.308;5.624;2023-03-01T04:53:27;10.40;;;8.50;;
7195;SDS011;3639;51.308;5.624;2023-03-01T04:55:54;10.63;;;7.53;;
7195;SDS011;3639;51.308;5.624;2023-03-01T04:58:21;13.73;;;8.50;;
7195;SDS011;3639;51.308;5.624;2023-03-01T05:00:51;11.07;;;8.10;;
7195;SDS011;3639;51.308;5.624;2023-03-01T05:03:17;12.13;;;8.20;;
7195;SDS011;3639;51.308;5.624;2023-03-01T05:05:43;13.33;;;7.77;;
7195;SDS011;3639;51.308;5.624;2023-03-01T05:08:10;12.63;;;8.40;;
7195;SDS011;3639;51.308;5.624;2023-03-01T05:10:42;13.33;;;8.37;;
7195;SDS011;3639;51.308;5.624;2023-03-01T05:13:10;12.73;;;8.00;;
7195;SDS011;3639;51.308;5.624;2023-03-01T05:15:38;11.80;;;7.77;;
7195;SDS011;3639;51.308;5.624;2023-03-01T05:18:04;9.97;;;6.73;;
7195;SDS011;3639;51.308;5.624;2023-03-01T05:20:36;12.10;;;7.33;;
7195;SDS011;3639;51.308;5.624;2023-03-01T05:23:03;10.57;;;7.77;;
7195;SDS011;3639;51.308;5.624;2023-03-01T05:25:30;9.97;;;7.73;;
7195;SDS011;3639;51.308;5.624;2023-03-01T05:27:58;9.87;;;8.40;;
7195;SDS011;3639;51.308;5.624;2023-03-01T05:30:28;11.33;;;7.70;;
7195;SDS011;3639;51.308;5.624;2023-03-01T05:32:54;13.47;;;7.27;;
7195;SDS011;3639;51.308;5.624;2023-03-01T05:35:20;8.20;;;7.40;;
7195;SDS011;3639;51.308;5.624;2023-03-01T05:37:47;15.53;;;8.70;;
7195;SDS011;3639;51.308;5.624;2023-03-01T05:40:17;10.63;;;7.83;;
7195;SDS011;3639;51.308;5.624;2023-03-01T05:42:49;11.57;;;7.97;;
7195;SDS011;3639;51.308;5.624;2023-03-01T05:45:17;10.53;;;7.77;;
7195;SDS011;3639;51.308;5.624;2023-03-01T05:47:44;13.73;;;8.60;;
7195;SDS011;3639;51.308;5.624;2023-03-01T05:50:21;12.73;;;7.67;;
7195;SDS011;3639;51.308;5.624;2023-03-01T05:52:49;9.30;;;8.30;;
7195;SDS011;3639;51.308;5.624;2023-03-01T05:55:26;10.00;;;7.93;;
7195;SDS011;3639;51.308;5.624;2023-03-01T05:57:52;11.33;;;8.67;;
7195;SDS011;3639;51.308;5.624;2023-03-01T06:00:18;11.53;;;8.27;;
7195;SDS011;3639;51.308;5.624;2023-03-01T06:02:47;15.30;;;7.97;;
7195;SDS011;3639;51.308;5.624;2023-03-01T06:05:13;12.37;;;8.87;;
7195;SDS011;3639;51.308;5.624;2023-03-01T06:07:40;14.80;;;9.80;;
7195;SDS011;3639;51.308;5.624;2023-03-01T06:10:06;12.57;;;8.67;;
7195;SDS011;3639;51.308;5.624;2023-03-01T06:12:34;14.33;;;8.77;;
7195;SDS011;3639;51.308;5.624;2023-03-01T06:15:01;12.43;;;9.97;;
7195;SDS011;3639;51.308;5.624;2023-03-01T06:17:31;10.57;;;8.80;;
7195;SDS011;3639;51.308;5.624;2023-03-01T06:19:57;12.20;;;8.80;;
7195;SDS011;3639;51.308;5.624;2023-03-01T06:22:23;11.63;;;8.87;;
7195;SDS011;3639;51.308;5.624;2023-03-01T06:24:49;12.97;;;8.70;;
7195;SDS011;3639;51.308;5.624;2023-03-01T06:27:15;14.20;;;9.10;;
7195;SDS011;3639;51.308;5.624;2023-03-01T06:29:41;15.07;;;8.33;;
7195;SDS011;3639;51.308;5.624;2023-03-01T06:32:06;11.57;;;8.17;;
7195;SDS011;3639;51.308;5.624;2023-03-01T06:34:33;10.03;;;7.97;;
7195;SDS011;3639;51.308;5.624;2023-03-01T06:36:59;11.13;;;8.13;;
7195;SDS011;3639;51.308;5.624;2023-03-01T06:39:24;15.23;;;8.97;;
7195;SDS011;3639;51.308;5.624;2023-03-01T06:41:52;12.40;;;9.13;;
7195;SDS011;3639;51.308;5.624;2023-03-01T06:44:18;10.97;;;7.93;;
7195;SDS011;3639;51.308;5.624;2023-03-01T06:46:43;12.50;;;8.93;;
7195;SDS011;3639;51.308;5.624;2023-03-01T06:49:09;12.37;;;8.70;;
7195;SDS011;3639;51.308;5.624;2023-03-01T06:51:38;10.13;;;8.67;;
7195;SDS011;3639;51.308;5.624;2023-03-01T06:54:04;10.50;;;8.30;;
7195;SDS011;3639;51.308;5.624;2023-03-01T06:56:30;15.23;;;8.70;;
7195;SDS011;3639;51.308;5.624;2023-03-01T06:58:56;17.03;;;8.83;;
7195;SDS011;3639;51.308;5.624;2023-03-01T07:01:22;11.57;;;8.87;;
7195;SDS011;3639;51.308;5.624;2023-03-01T07:03:47;11.17;;;7.23;;
7195;SDS011;3639;51.308;5.624;2023-03-01T07:06:13;13.27;;;9.70;;
7195;SDS011;3639;51.308;5.624;2023-03-01T07:08:39;17.53;;;9.57;;
7195;SDS011;3639;51.308;5.624;2023-03-01T07:11:05;23.07;;;16.27;;
7195;SDS011;3639;51.308;5.624;2023-03-01T07:13:31;19.70;;;13.13;;
7195;SDS011;3639;51.308;5.624;2023-03-01T07:15:56;16.20;;;12.13;;
7195;SDS011;3639;51.308;5.624;2023-03-01T07:18:22;19.60;;;13.80;;
7195;SDS011;3639;51.308;5.624;2023-03-01T07:20:48;10.83;;;9.20;;
7195;SDS011;3639;51.308;5.624;2023-03-01T07:23:14;10.90;;;8.23;;
7195;SDS011;3639;51.308;5.624;2023-03-01T07:25:40;9.97;;;8.37;;
7195;SDS011;3639;51.308;5.624;2023-03-01T07:28:05;12.67;;;8.67;;
7195;SDS011;3639;51.308;5.624;2023-03-01T07:30:31;11.53;;;8.40;;
7195;SDS011;3639;51.308;5.624;2023-03-01T07:32:57;11.50;;;9.00;;
7195;SDS011;3639;51.308;5.624;2023-03-01T07:35:24;16.60;;;10.67;;
7195;SDS011;3639;51.308;5.624;2023-03-01T07:37:51;15.37;;;9.80;;
7195;SDS011;3639;51.308;5.624;2023-03-01T07:40:17;17.33;;;9.80;;
7195;SDS011;3639;51.308;5.624;2023-03-01T07:42:43;13.93;;;9.60;;
7195;SDS011;3639;51.308;5.624;2023-03-01T07:45:09;11.63;;;8.40;;
7195;SDS011;3639;51.308;5.624;2023-03-01T07:47:35;12.57;;;9.33;;
7195;SDS011;3639;51.308;5.624;2023-03-01T07:50:02;13.07;;;8.93;;
7195;SDS011;3639;51.308;5.624;2023-03-01T07:52:29;15.00;;;9.13;;
7195;SDS011;3639;51.308;5.624;2023-03-01T07:54:55;14.03;;;10.27;;
7195;SDS011;3639;51.308;5.624;2023-03-01T07:57:22;13.43;;;8.60;;
7195;SDS011;3639;51.308;5.624;2023-03-01T07:59:48;13.70;;;9.03;;
7195;SDS011;3639;51.308;5.624;2023-03-01T08:02:16;15.30;;;9.23;;
7195;SDS011;3639;51.308;5.624;2023-03-01T08:04:42;11.23;;;7.73;;
7195;SDS011;3639;51.308;5.624;2023-03-01T08:07:08;11.93;;;8.77;;
7195;SDS011;3639;51.308;5.624;2023-03-01T08:09:36;14.17;;;8.23;;
7195;SDS011;3639;51.308;5.624;2023-03-01T08:12:03;12.37;;;9.10;;
7195;SDS011;3639;51.308;5.624;2023-03-01T08:14:29;19.47;;;9.50;;
7195;SDS011;3639;51.308;5.624;2023-03-01T08:16:56;14.37;;;10.10;;
7195;SDS011;3639;51.308;5.624;2023-03-01T08:19:21;11.50;;;8.53;;
7195;SDS011;3639;51.308;5.624;2023-03-01T08:21:47;12.87;;;9.17;;
7195;SDS011;3639;51.308;5.624;2023-03-01T08:24:13;12.87;;;8.97;;
7195;SDS011;3639;51.308;5.624;2023-03-01T08:26:38;11.67;;;8.63;;
7195;SDS011;3639;51.308;5.624;2023-03-01T08:29:04;15.97;;;8.80;;
7195;SDS011;3639;51.308;5.624;2023-03-01T08:31:34;13.00;;;8.53;;
7195;SDS011;3639;51.308;5.624;2023-03-01T08:34:05;9.73;;;8.20;;
7195;SDS011;3639;51.308;5.624;2023-03-01T08:36:35;13.10;;;8.47;;
7195;SDS011;3639;51.308;5.624;2023-03-01T08:39:03;12.03;;;8.20;;
7195;SDS011;3639;51.308;5.624;2023-03-01T08:41:29;12.23;;;8.00;;
7195;SDS011;3639;51.308;5.624;2023-03-01T08:43:55;11.50;;;8.40;;
7195;SDS011;3639;51.308;5.624;2023-03-01T08:46:27;12.20;;;8.57;;
7195;SDS011;3639;51.308;5.624;2023-03-01T08:48:53;11.83;;;7.93;;
7195;SDS011;3639;51.308;5.624;2023-03-01T08:51:20;12.10;;;8.87;;
7195;SDS011;3639;51.308;5.624;2023-03-01T08:53:46;14.93;;;8.43;;
7195;SDS011;3639;51.308;5.624;2023-03-01T08:56:13;11.47;;;8.70;;
7195;SDS011;3639;51.308;5.624;2023-03-01T08:58:38;13.43;;;7.80;;
7195;SDS011;3639;51.308;5.624;2023-03-01T09:01:11;10.03;;;7.63;;
7195;SDS011;3639;51.308;5.624;2023-03-01T09:03:39;11.03;;;7.53;;
7195;SDS011;3639;51.308;5.624;2023-03-01T09:06:05;16.50;;;7.90;;
7195;SDS011;3639;51.308;5.624;2023-03-01T09:08:36;16.47;;;7.70;;
7195;SDS011;3639;51.308;5.624;2023-03-01T09:11:03;12.53;;;6.90;;
7195;SDS011;3639;51.308;5.624;2023-03-01T09:13:30;13.13;;;8.07;;
7195;SDS011;3639;51.308;5.624;2023-03-01T09:15:56;13.60;;;7.40;;
7195;SDS011;3639;51.308;5.624;2023-03-01T09:18:23;11.63;;;7.43;;
7195;SDS011;3639;51.308;5.624;2023-03-01T09:20:49;11.57;;;7.40;;
7195;SDS011;3639;51.308;5.624;2023-03-01T09:23:14;8.73;;;6.43;;
7195;SDS011;3639;51.308;5.624;2023-03-01T09:25:40;10.47;;;6.60;;
7195;SDS011;3639;51.308;5.624;2023-03-01T09:28:05;10.23;;;7.43;;
7195;SDS011;3639;51.308;5.624;2023-03-01T09:30:31;13.13;;;8.60;;
7195;SDS011;3639;51.308;5.624;2023-03-01T09:32:57;8.63;;;6.67;;
7195;SDS011;3639;51.308;5.624;2023-03-01T09:35:22;10.23;;;7.17;;
7195;SDS011;3639;51.308;5.624;2023-03-01T09:37:48;12.50;;;7.93;;
7195;SDS011;3639;51.308;5.624;2023-03-01T09:40:21;8.77;;;7.30;;
7195;SDS011;3639;51.308;5.624;2023-03-01T09:42:57;15.50;;;7.87;;
7195;SDS011;3639;51.308;5.624;2023-03-01T09:45:37;14.53;;;8.50;;
7195;SDS011;3639;51.308;5.624;2023-03-01T09:48:11;13.63;;;7.27;;
7195;SDS011;3639;51.308;5.624;2023-03-01T09:50:41;12.47;;;7.47;;
7195;SDS011;3639;51.308;5.624;2023-03-01T09:53:21;11.63;;;7.90;;
7195;SDS011;3639;51.308;5.624;2023-03-01T09:56:01;11.23;;;7.53;;
7195;SDS011;3639;51.308;5.624;2023-03-01T09:58:59;11.30;;;8.10;;
7195;SDS011;3639;51.308;5.624;2023-03-01T10:01:45;11.03;;;8.17;;
7195;SDS011;3639;51.308;5.624;2023-03-01T10:04:50;16.43;;;8.43;;
7195;SDS011;3639;51.308;5.624;2023-03-01T10:07:41;12.97;;;7.93;;
7195;SDS011;3639;51.308;5.624;2023-03-01T10:10:33;12.73;;;7.60;;
7195;SDS011;3639;51.308;5.624;2023-03-01T10:16:00;13.47;;;7.97;;
7195;SDS011;3639;51.308;5.624;2023-03-01T10:18:39;11.07;;;8.10;;
7195;SDS011;3639;51.308;5.624;2023-03-01T10:21:13;15.63;;;8.00;;
7195;SDS011;3639;51.308;5.624;2023-03-01T10:23:42;11.90;;;7.17;;
7195;SDS011;3639;51.308;5.624;2023-03-01T10:29:29;9.63;;;6.87;;
7195;SDS011;3639;51.308;5.624;2023-03-01T10:31:49;11.73;;;7.33;;
7195;SDS011;3639;51.308;5.624;2023-03-01T10:34:30;9.97;;;7.53;;
7195;SDS011;3639;51.308;5.624;2023-03-01T10:37:08;11.60;;;7.37;;
7195;SDS011;3639;51.308;5.624;2023-03-01T10:39:36;11.57;;;8.00;;
7195;SDS011;3639;51.308;5.624;2023-03-01T10:44:40;11.63;;;7.30;;
7195;SDS011;3639;51.308;5.624;2023-03-01T10:47:18;12.27;;;7.20;;
7195;SDS011;3639;51.308;5.624;2023-03-01T10:52:21;18.10;;;7.93;;
7195;SDS011;3639;51.308;5.624;2023-03-01T10:54:51;14.13;;;7.40;;
7195;SDS011;3639;51.308;5.624;2023-03-01T10:57:29;11.67;;;7.80;;
7195;SDS011;3639;51.308;5.624;2023-03-01T11:00:14;18.97;;;7.13;;
7195;SDS011;3639;51.308;5.624;2023-03-01T11:05:24;11.07;;;7.57;;
7195;SDS011;3639;51.308;5.624;2023-03-01T11:07:56;13.40;;;8.60;;
7195;SDS011;3639;51.308;5.624;2023-03-01T11:10:25;10.10;;;7.43;;
7195;SDS011;3639;51.308;5.624;2023-03-01T11:12:52;11.23;;;7.80;;
7195;SDS011;3639;51.308;5.624;2023-03-01T11:15:23;9.73;;;7.13;;
7195;SDS011;3639;51.308;5.624;2023-03-01T11:17:53;10.40;;;6.93;;
7195;SDS011;3639;51.308;5.624;2023-03-01T11:20:36;16.93;;;7.53;;
7195;SDS011;3639;51.308;5.624;2023-03-01T11:23:10;11.53;;;7.57;;
7195;SDS011;3639;51.308;5.624;2023-03-01T11:25:43;10.50;;;7.47;;
7195;SDS011;3639;51.308;5.624;2023-03-01T11:28:16;11.40;;;7.27;;
7195;SDS011;3639;51.308;5.624;2023-03-01T11:33:15;13.13;;;7.27;;
7195;SDS011;3639;51.308;5.624;2023-03-01T11:35:53;13.80;;;7.77;;
7195;SDS011;3639;51.308;5.624;2023-03-01T11:38:26;21.23;;;7.93;;
7195;SDS011;3639;51.308;5.624;2023-03-01T11:40:54;13.77;;;7.77;;
7195;SDS011;3639;51.308;5.624;2023-03-01T11:43:29;15.50;;;8.13;;
7195;SDS011;3639;51.308;5.624;2023-03-01T11:54:13;11.17;;;7.70;;
7195;SDS011;3639;51.308;5.624;2023-03-01T11:56:43;13.10;;;7.80;;
7195;SDS011;3639;51.308;5.624;2023-03-01T12:04:39;12.43;;;7.33;;
7195;SDS011;3639;51.308;5.624;2023-03-01T12:10:33;11.00;;;7.50;;
7195;SDS011;3639;51.308;5.624;2023-03-01T12:16:22;12.73;;;7.70;;
7195;SDS011;3639;51.308;5.624;2023-03-01T12:21:46;11.80;;;6.57;;
7195;SDS011;3639;51.308;5.624;2023-03-01T12:27:54;14.47;;;7.40;;
7195;SDS011;3639;51.308;5.624;2023-03-01T12:33:19;12.87;;;8.17;;
7195;SDS011;3639;51.308;5.624;2023-03-01T12:41:48;8.80;;;5.97;;
7195;SDS011;3639;51.308;5.624;2023-03-01T12:49:45;9.70;;;5.47;;
7195;SDS011;3639;51.308;5.624;2023-03-01T12:52:35;10.67;;;6.07;;
7195;SDS011;3639;51.308;5.624;2023-03-01T12:55:07;8.10;;;6.27;;
7195;SDS011;3639;51.308;5.624;2023-03-01T12:57:54;9.10;;;6.13;;
7195;SDS011;3639;51.308;5.624;2023-03-01T13:00:52;10.17;;;6.50;;
7195;SDS011;3639;51.308;5.624;2023-03-01T13:06:25;10.43;;;6.63;;
7195;SDS011;3639;51.308;5.624;2023-03-01T13:11:19;7.50;;;6.13;;
7195;SDS011;3639;51.308;5.624;2023-03-01T13:13:48;8.30;;;6.00;;
7195;SDS011;3639;51.308;5.624;2023-03-01T13:19:15;8.50;;;6.43;;
7195;SDS011;3639;51.308;5.624;2023-03-01T13:21:42;8.23;;;6.10;;
7195;SDS011;3639;51.308;5.624;2023-03-01T13:29:47;8.43;;;5.93;;
7195;SDS011;3639;51.308;5.624;2023-03-01T13:32:23;10.87;;;6.23;;
7195;SDS011;3639;51.308;5.624;2023-03-01T13:35:00;7.60;;;5.20;;
7195;SDS011;3639;51.308;5.624;2023-03-01T13:37:43;9.83;;;5.23;;
7195;SDS011;3639;51.308;5.624;2023-03-01T13:45:19;7.00;;;4.63;;
7195;SDS011;3639;51.308;5.624;2023-03-01T13:47:49;6.63;;;4.97;;
7195;SDS011;3639;51.308;5.624;2023-03-01T13:50:20;7.30;;;5.50;;
7195;SDS011;3639;51.308;5.624;2023-03-01T13:52:52;8.00;;;4.97;;
7195;SDS011;3639;51.308;5.624;2023-03-01T13:55:36;6.03;;;4.60;;
7195;SDS011;3639;51.308;5.624;2023-03-01T14:03:29;10.37;;;5.73;;
7195;SDS011;3639;51.308;5.624;2023-03-01T14:08:29;9.47;;;5.87;;
7195;SDS011;3639;51.308;5.624;2023-03-01T14:16:36;10.93;;;6.10;;
7195;SDS011;3639;51.308;5.624;2023-03-01T14:19:29;11.77;;;6.80;;
7195;SDS011;3639;51.308;5.624;2023-03-01T14:22:00;6.57;;;5.60;;
7195;SDS011;3639;51.308;5.624;2023-03-01T14:24:49;8.20;;;5.97;;
7195;SDS011;3639;51.308;5.624;2023-03-01T14:27:17;8.07;;;5.53;;
7195;SDS011;3639;51.308;5.624;2023-03-01T14:29:44;7.90;;;5.00;;
7195;SDS011;3639;51.308;5.624;2023-03-01T14:32:30;6.80;;;5.30;;
7195;SDS011;3639;51.308;5.624;2023-03-01T14:34:58;8.47;;;5.00;;
7195;SDS011;3639;51.308;5.624;2023-03-01T14:37:28;8.17;;;5.47;;
7195;SDS011;3639;51.308;5.624;2023-03-01T14:39:57;7.43;;;5.20;;
7195;SDS011;3639;51.308;5.624;2023-03-01T14:42:24;8.43;;;5.67;;
7195;SDS011;3639;51.308;5.624;2023-03-01T14:44:56;12.03;;;5.37;;
7195;SDS011;3639;51.308;5.624;2023-03-01T14:47:26;8.63;;;5.10;;
7195;SDS011;3639;51.308;5.624;2023-03-01T14:50:02;7.23;;;5.90;;
7195;SDS011;3639;51.308;5.624;2023-03-01T14:52:46;8.03;;;5.67;;
7195;SDS011;3639;51.308;5.624;2023-03-01T14:55:18;8.00;;;5.20;;
7195;SDS011;3639;51.308;5.624;2023-03-01T14:57:49;9.47;;;5.13;;
7195;SDS011;3639;51.308;5.624;2023-03-01T15:00:17;9.10;;;5.43;;
7195;SDS011;3639;51.308;5.624;2023-03-01T15:02:47;6.57;;;4.90;;
7195;SDS011;3639;51.308;5.624;2023-03-01T15:05:15;7.63;;;5.27;;
7195;SDS011;3639;51.308;5.624;2023-03-01T15:07:43;5.13;;;4.63;;
7195;SDS011;3639;51.308;5.624;2023-03-01T15:10:25;9.20;;;5.10;;
7195;SDS011;3639;51.308;5.624;2023-03-01T15:12:53;6.17;;;5.40;;
7195;SDS011;3639;51.308;5.624;2023-03-01T15:15:30;7.07;;;5.20;;
7195;SDS011;3639;51.308;5.624;2023-03-01T15:17:59;11.13;;;6.63;;
7195;SDS011;3639;51.308;5.624;2023-03-01T15:20:28;11.03;;;6.50;;
7195;SDS011;3639;51.308;5.624;2023-03-01T15:22:57;11.70;;;6.80;;
7195;SDS011;3639;51.308;5.624;2023-03-01T15:25:25;11.80;;;7.83;;
7195;SDS011;3639;51.308;5.624;2023-03-01T15:27:53;10.83;;;6.93;;
7195;SDS011;3639;51.308;5.624;2023-03-01T15:30:21;10.93;;;6.13;;
7195;SDS011;3639;51.308;5.624;2023-03-01T15:33:15;10.17;;;6.23;;
7195;SDS011;3639;51.308;5.624;2023-03-01T15:35:44;11.20;;;6.80;;
7195;SDS011;3639;51.308;5.624;2023-03-01T15:41:20;18.43;;;10.03;;
7195;SDS011;3639;51.308;5.624;2023-03-01T15:43:52;13.80;;;7.80;;
7195;SDS011;3639;51.308;5.624;2023-03-01T15:48:58;21.43;;;9.37;;
7195;SDS011;3639;51.308;5.624;2023-03-01T15:51:28;29.27;;;14.97;;
7195;SDS011;3639;51.308;5.624;2023-03-01T15:54:06;28.07;;;12.93;;
7195;SDS011;3639;51.308;5.624;2023-03-01T15:56:38;20.23;;;9.87;;
7195;SDS011;3639;51.308;5.624;2023-03-01T15:59:04;19.97;;;10.07;;
7195;SDS011;3639;51.308;5.624;2023-03-01T16:01:32;29.37;;;13.70;;
7195;SDS011;3639;51.308;5.624;2023-03-01T16:03:59;19.27;;;10.67;;
7195;SDS011;3639;51.308;5.624;2023-03-01T16:06:25;27.00;;;13.00;;
7195;SDS011;3639;51.308;5.624;2023-03-01T16:08:50;27.03;;;10.83;;
7195;SDS011;3639;51.308;5.624;2023-03-01T16:11:17;22.97;;;10.77;;
7195;SDS011;3639;51.308;5.624;2023-03-01T16:13:44;17.10;;;10.90;;
7195;SDS011;3639;51.308;5.624;2023-03-01T16:16:11;11.90;;;7.90;;
7195;SDS011;3639;51.308;5.624;2023-03-01T16:18:40;9.80;;;6.80;;
7195;SDS011;3639;51.308;5.624;2023-03-01T16:21:06;9.20;;;6.97;;
7195;SDS011;3639;51.308;5.624;2023-03-01T16:23:34;8.70;;;5.70;;
7195;SDS011;3639;51.308;5.624;2023-03-01T16:26:00;9.53;;;6.10;;
7195;SDS011;3639;51.308;5.624;2023-03-01T16:28:25;7.80;;;6.20;;
7195;SDS011;3639;51.308;5.624;2023-03-01T16:30:51;8.03;;;5.97;;
7195;SDS011;3639;51.308;5.624;2023-03-01T16:33:17;9.87;;;6.60;;
7195;SDS011;3639;51.308;5.624;2023-03-01T16:35:43;10.07;;;6.30;;
7195;SDS011;3639;51.308;5.624;2023-03-01T16:38:09;12.83;;;5.67;;
7195;SDS011;3639;51.308;5.624;2023-03-01T16:40:35;12.17;;;6.77;;
7195;SDS011;3639;51.308;5.624;2023-03-01T16:43:00;10.47;;;6.60;;
7195;SDS011;3639;51.308;5.624;2023-03-01T16:45:27;9.30;;;5.97;;
7195;SDS011;3639;51.308;5.624;2023-03-01T16:47:58;18.47;;;7.27;;
7195;SDS011;3639;51.308;5.624;2023-03-01T16:50:24;13.57;;;6.27;;
7195;SDS011;3639;51.308;5.624;2023-03-01T16:52:50;9.27;;;6.40;;
7195;SDS011;3639;51.308;5.624;2023-03-01T16:55:16;12.03;;;6.53;;
7195;SDS011;3639;51.308;5.624;2023-03-01T16:57:41;14.80;;;6.90;;
7195;SDS011;3639;51.308;5.624;2023-03-01T17:00:09;15.33;;;7.20;;
7195;SDS011;3639;51.308;5.624;2023-03-01T17:02:37;10.57;;;6.03;;
7195;SDS011;3639;51.308;5.624;2023-03-01T17:05:04;10.37;;;6.07;;
7195;SDS011;3639;51.308;5.624;2023-03-01T17:07:30;11.10;;;6.47;;
7195;SDS011;3639;51.308;5.624;2023-03-01T17:10:02;9.40;;;6.80;;
7195;SDS011;3639;51.308;5.624;2023-03-01T17:12:29;10.70;;;7.03;;
7195;SDS011;3639;51.308;5.624;2023-03-01T17:14:56;9.47;;;6.57;;